Repülésmeteorológia

METAR


Utolsó módosítás időpontja: 2022-09-29 16:50:00
715
SAHU41 HASM 291700
METAR LHSM 291645Z AUTO 00000KT 9999 OVC012 13/12 Q1004

TAF


Utolsó módosítás időpontja: 2022-09-29 16:10:00
713
FCHU99 LHSM 291100 AAA
TAF AMD LHSM 291600Z 2915/2921 CNL